createdAt,value
2022-11-11T00:00:00.573Z,99.9
2022-11-11T00:02:01.972Z,99.9
2022-11-11T00:04:03.366Z,99.9
2022-11-11T00:06:08.075Z,99.9
2022-11-11T00:08:09.464Z,99.9
2022-11-11T00:10:10.869Z,99.9
2022-11-11T00:12:12.261Z,99.9
2022-11-11T00:14:13.645Z,99.9
2022-11-11T00:16:15.051Z,99.9
2022-11-11T00:18:16.464Z,99.9
2022-11-11T00:20:24.178Z,99.9
2022-11-11T00:22:22.621Z,99.9
2022-11-11T00:24:23.980Z,99.9
2022-11-11T00:30:28.218Z,99.9
2022-11-11T00:32:29.596Z,99.9
2022-11-11T00:36:35.739Z,99.9
2022-11-11T00:38:37.198Z,99.9
2022-11-11T00:40:38.590Z,99.9
2022-11-11T00:42:39.980Z,99.9
2022-11-11T00:44:41.291Z,99.9
2022-11-11T00:46:42.839Z,99.9
2022-11-11T00:48:47.373Z,99.9
2022-11-11T00:50:48.803Z,99.9
2022-11-11T00:52:50.256Z,99.9
2022-11-11T00:57:14.650Z,99.9
2022-11-11T00:59:16.024Z,99.9
2022-11-11T01:01:20.730Z,99.9
2022-11-11T01:03:22.232Z,99.9
2022-11-11T01:05:23.481Z,99.9
2022-11-11T01:07:24.934Z,99.9
2022-11-11T01:09:26.284Z,99.9
2022-11-11T01:11:27.664Z,99.9
2022-11-11T01:13:29.175Z,99.9
2022-11-11T01:15:33.813Z,99.9
2022-11-11T01:17:35.185Z,99.9
2022-11-11T01:19:36.645Z,99.9
2022-11-11T01:21:38.002Z,99.9
2022-11-11T01:23:39.353Z,99.9
2022-11-11T01:25:40.812Z,99.9
2022-11-11T01:27:42.215Z,99.9
2022-11-11T01:29:46.941Z,99.9
2022-11-11T01:31:48.334Z,99.9
2022-11-11T01:33:49.814Z,99.9
2022-11-11T01:37:52.629Z,99.9
2022-11-11T01:39:53.946Z,99.9
2022-11-11T01:42:00.549Z,99.9
2022-11-11T01:44:00.007Z,99.9
2022-11-11T01:46:01.496Z,99.9
2022-11-11T01:48:22.976Z,99.9
2022-11-11T01:49:05.163Z,99.9
2022-11-11T01:51:06.581Z,99.9
2022-11-11T01:53:07.970Z,99.9
2022-11-11T01:55:09.559Z,99.9
2022-11-11T01:57:14.155Z,99.9
2022-11-11T01:59:15.635Z,99.9
2022-11-11T02:03:18.476Z,99.9
2022-11-11T02:05:19.688Z,99.9
2022-11-11T02:07:21.263Z,99.9
2022-11-11T02:09:22.535Z,99.9
2022-11-11T02:11:27.201Z,99.9
2022-11-11T02:13:28.845Z,99.9
2022-11-11T02:15:29.991Z,99.9
2022-11-11T02:19:32.971Z,99.9
2022-11-11T02:23:35.694Z,99.9
2022-11-11T02:25:40.494Z,99.9
2022-11-11T02:27:41.732Z,99.9
2022-11-11T02:29:43.171Z,99.9
2022-11-11T02:31:44.717Z,99.9
2022-11-11T02:33:45.923Z,99.9
2022-11-11T02:35:47.514Z,99.9
2022-11-11T02:37:48.799Z,99.9
2022-11-11T02:40:03.313Z,99.9
2022-11-11T02:41:54.936Z,99.9
2022-11-11T02:43:56.406Z,99.9
2022-11-11T02:49:01.372Z,99.9
2022-11-11T02:51:02.828Z,99.9
2022-11-11T02:53:07.647Z,99.9
2022-11-11T02:55:09.107Z,99.9
2022-11-11T02:57:10.554Z,99.9
2022-11-11T02:59:11.859Z,99.9
2022-11-11T03:01:13.093Z,99.9
2022-11-11T03:03:14.560Z,99.9
2022-11-11T03:05:16.036Z,99.9
2022-11-11T03:07:20.626Z,99.9
2022-11-11T03:09:22.134Z,99.9
2022-11-11T03:11:23.445Z,99.9
2022-11-11T03:13:25.102Z,99.9
2022-11-11T03:15:26.190Z,99.9
2022-11-11T03:17:27.756Z,99.9
2022-11-11T03:19:29.033Z,99.9
2022-11-11T03:23:35.078Z,99.9
2022-11-11T03:25:36.475Z,99.9
2022-11-11T03:27:37.905Z,99.9
2022-11-11T03:29:39.289Z,99.9
2022-11-11T03:31:40.702Z,99.9
2022-11-11T03:33:42.083Z,99.9
2022-11-11T03:35:46.787Z,99.9
2022-11-11T03:37:48.194Z,99.9
2022-11-11T03:39:49.627Z,99.9
2022-11-11T03:40:51.930Z,99.9
2022-11-11T03:44:54.765Z,99.9
2022-11-11T03:46:56.167Z,99.9
2022-11-11T03:49:00.872Z,99.9
2022-11-11T03:55:05.072Z,99.9
2022-11-11T03:57:06.477Z,99.9
2022-11-11T03:59:07.894Z,99.9
2022-11-11T04:01:09.287Z,99.9
2022-11-11T04:05:15.394Z,99.9
2022-11-11T04:07:16.891Z,99.9
2022-11-11T04:09:18.198Z,99.9
2022-11-11T04:15:22.386Z,99.9
2022-11-11T04:19:28.479Z,99.9
2022-11-11T04:21:29.851Z,99.9
2022-11-11T04:23:31.288Z,99.9
2022-11-11T04:29:35.467Z,99.9
2022-11-11T04:33:41.592Z,99.9
2022-11-11T04:40:05.262Z,99.9
2022-11-11T04:42:08.579Z,99.9
2022-11-11T04:44:11.356Z,99.9
2022-11-11T04:46:12.866Z,99.9
2022-11-11T04:48:14.137Z,99.9
2022-11-11T04:50:15.509Z,99.9
2022-11-11T04:52:16.921Z,99.9
2022-11-11T04:54:18.328Z,99.9
2022-11-11T04:56:19.933Z,99.9
2022-11-11T04:58:24.477Z,99.9
2022-11-11T05:00:31.375Z,99.9
2022-11-11T05:02:27.311Z,99.9
2022-11-11T05:04:28.687Z,99.9
2022-11-11T05:06:30.105Z,99.9
2022-11-11T05:08:31.469Z,99.9
2022-11-11T05:10:32.857Z,99.9
2022-11-11T05:12:37.573Z,99.9
2022-11-11T05:14:38.951Z,99.9
2022-11-11T05:16:40.371Z,99.9
2022-11-11T05:18:41.745Z,99.9
2022-11-11T05:20:43.142Z,99.9
2022-11-11T05:22:44.551Z,99.9
2022-11-11T05:24:45.943Z,99.9
2022-11-11T05:26:50.648Z,99.9
2022-11-11T05:31:57.350Z,99.9
2022-11-11T05:33:58.727Z,99.9
2022-11-11T05:36:00.143Z,99.9
2022-11-11T05:38:01.486Z,99.9
2022-11-11T05:40:06.197Z,99.9
2022-11-11T05:42:07.599Z,99.9
2022-11-11T05:44:09.008Z,99.9
2022-11-11T05:46:10.412Z,99.9
2022-11-11T05:48:11.818Z,99.9
2022-11-11T05:52:14.624Z,99.9
2022-11-11T05:54:19.281Z,99.9
2022-11-11T05:56:20.885Z,99.9
2022-11-11T05:58:22.079Z,99.9
2022-11-11T06:02:24.888Z,99.9
2022-11-11T06:06:27.661Z,99.9
2022-11-11T06:08:32.402Z,99.9
2022-11-11T06:10:33.816Z,99.9
2022-11-11T06:12:35.195Z,99.9
2022-11-11T06:14:36.614Z,99.9
2022-11-11T06:16:38.010Z,99.9
2022-11-11T06:18:39.400Z,99.9
2022-11-11T06:20:40.829Z,99.9
2022-11-11T06:22:45.485Z,99.9
2022-11-11T06:24:46.911Z,99.9
2022-11-11T06:26:48.278Z,99.9
2022-11-11T06:27:50.673Z,99.9
2022-11-11T06:29:52.049Z,99.9
2022-11-11T06:31:53.453Z,99.9
2022-11-11T06:33:54.869Z,99.9
2022-11-11T06:35:59.565Z,99.9
2022-11-11T06:46:06.588Z,99.9
2022-11-11T06:48:07.977Z,99.9
2022-11-11T06:50:12.711Z,99.9
2022-11-11T06:52:14.077Z,99.9
2022-11-11T06:56:16.873Z,99.9
2022-11-11T06:58:18.297Z,99.9
2022-11-11T07:06:27.179Z,99.9
2022-11-11T07:08:28.825Z,99.9
2022-11-11T07:14:32.752Z,99.9
2022-11-11T07:16:34.137Z,99.9
2022-11-11T07:22:41.648Z,99.9
2022-11-11T07:23:43.982Z,99.9
2022-11-11T07:25:45.391Z,99.9
2022-11-11T07:27:46.802Z,99.9
2022-11-11T07:29:48.174Z,99.9
2022-11-11T07:31:52.888Z,99.9
2022-11-11T07:33:54.284Z,99.9
2022-11-11T07:35:55.676Z,99.9
2022-11-11T07:37:57.091Z,99.9
2022-11-11T07:39:58.496Z,99.9
2022-11-11T07:41:59.870Z,99.9
2022-11-11T07:44:01.282Z,99.9
2022-11-11T07:46:05.976Z,99.9
2022-11-11T07:54:11.521Z,99.9
2022-11-11T07:56:12.913Z,99.9
2022-11-11T08:04:21.785Z,99.9
2022-11-11T08:06:23.190Z,99.9
2022-11-11T08:08:24.992Z,99.9
2022-11-11T08:10:25.994Z,99.9
2022-11-11T08:12:27.356Z,99.9
2022-11-11T08:14:32.054Z,99.9
2022-11-11T08:16:33.461Z,99.9
2022-11-11T08:20:57.953Z,99.9
2022-11-11T08:25:03.899Z,99.9
2022-11-11T08:27:05.464Z,99.9
2022-11-11T08:29:06.859Z,99.9
2022-11-11T08:31:08.253Z,99.9
2022-11-11T08:33:32.344Z,99.9
2022-11-11T08:35:11.035Z,99.9
2022-11-11T08:37:12.438Z,99.9
2022-11-11T08:39:13.845Z,99.9
2022-11-11T08:41:18.518Z,99.9
2022-11-11T08:43:19.913Z,99.9
2022-11-11T08:45:21.347Z,99.9
2022-11-11T08:47:22.744Z,99.9
2022-11-11T08:49:24.138Z,99.9
2022-11-11T08:51:25.514Z,99.9
2022-11-11T08:53:27.391Z,99.9
2022-11-11T08:55:31.631Z,99.9
2022-11-11T08:57:33.049Z,99.9
2022-11-11T08:59:34.462Z,99.9
2022-11-11T09:01:35.933Z,99.9
2022-11-11T09:03:37.265Z,99.9
2022-11-11T09:05:38.656Z,99.9
2022-11-11T09:07:40.050Z,99.9
2022-11-11T09:09:44.746Z,99.9
2022-11-11T09:11:46.144Z,99.9
2022-11-11T09:13:47.559Z,99.9
2022-11-11T09:14:49.903Z,99.9
2022-11-11T09:16:51.297Z,99.9
2022-11-11T09:18:52.673Z,99.9
2022-11-11T09:20:54.089Z,99.9
2022-11-11T09:22:58.772Z,99.9
2022-11-11T09:25:00.188Z,99.9
2022-11-11T09:27:01.585Z,99.9
2022-11-11T09:29:02.952Z,99.9
2022-11-11T09:31:29.978Z,99.9
2022-11-11T09:33:05.717Z,99.9
2022-11-11T09:37:11.825Z,99.9
2022-11-11T09:39:13.225Z,99.9
2022-11-11T09:41:14.612Z,99.9
2022-11-11T09:51:24.935Z,99.9
2022-11-11T09:53:26.305Z,99.9
2022-11-11T09:57:29.086Z,99.9
2022-11-11T09:59:30.440Z,99.9
2022-11-11T10:01:31.940Z,99.9
2022-11-11T10:03:33.246Z,99.9
2022-11-11T10:05:37.932Z,99.9
2022-11-11T10:07:39.346Z,99.9
2022-11-11T10:09:40.730Z,99.9
2022-11-11T10:10:43.096Z,99.9
2022-11-11T10:14:45.835Z,99.9
2022-11-11T10:16:47.232Z,99.9
2022-11-11T10:24:56.151Z,99.9
2022-11-11T10:26:57.551Z,99.9
2022-11-11T10:31:00.333Z,99.9
2022-11-11T10:37:07.834Z,99.9
2022-11-11T10:39:09.259Z,99.9
2022-11-11T10:41:10.654Z,99.9
2022-11-11T10:43:12.049Z,99.9
2022-11-11T10:45:13.469Z,99.9
2022-11-11T10:47:18.145Z,99.9
2022-11-11T10:49:19.634Z,99.9
2022-11-11T10:51:20.944Z,99.9
2022-11-11T10:53:22.370Z,99.9
2022-11-11T10:55:23.739Z,99.9
2022-11-11T10:57:25.134Z,99.9
2022-11-11T10:59:26.562Z,99.9
2022-11-11T11:01:31.337Z,99.9
2022-11-11T11:03:32.633Z,99.9
2022-11-11T11:05:34.008Z,99.9
2022-11-11T11:06:36.419Z,99.9
2022-11-11T11:08:37.791Z,99.9
2022-11-11T11:10:39.210Z,99.8
2022-11-11T11:12:40.607Z,99.6
2022-11-11T11:14:45.290Z,99.3
2022-11-11T11:16:46.694Z,99.1
2022-11-11T11:18:48.086Z,98.7
2022-11-11T11:20:49.480Z,98.2
2022-11-11T11:22:52.472Z,97.9
2022-11-11T11:24:53.850Z,97.4
2022-11-11T11:26:55.254Z,97.1
2022-11-11T11:28:59.936Z,96.6
2022-11-11T11:31:01.361Z,96.5
2022-11-11T11:33:02.747Z,96.4
2022-11-11T11:35:04.177Z,96.6
2022-11-11T11:37:05.561Z,96.2
2022-11-11T11:39:06.967Z,96.1
2022-11-11T11:41:08.364Z,95.6
2022-11-11T11:43:13.071Z,95.3
2022-11-11T11:45:14.450Z,94.9
2022-11-11T11:47:15.856Z,94.9
2022-11-11T11:49:17.250Z,95
2022-11-11T11:51:18.628Z,95.4
2022-11-11T11:53:20.029Z,95.5
2022-11-11T11:55:21.434Z,95.5
2022-11-11T11:59:27.546Z,95.4
2022-11-11T12:01:28.943Z,95.1
2022-11-11T12:03:51.608Z,94.8
2022-11-11T12:05:53.026Z,94.7
2022-11-11T12:07:54.424Z,94.7
2022-11-11T12:09:59.159Z,94.5
2022-11-11T12:12:00.543Z,94.4
2022-11-11T12:14:01.915Z,94.4
2022-11-11T12:16:03.363Z,94.3
2022-11-11T12:18:04.716Z,94.2
2022-11-11T12:20:06.113Z,94.3
2022-11-11T12:22:07.540Z,94.4
2022-11-11T12:24:12.213Z,94.5
2022-11-11T12:26:13.622Z,94.6
2022-11-11T12:28:15.012Z,94.6
2022-11-11T12:30:16.392Z,94.7
2022-11-11T12:32:17.789Z,94.7
2022-11-11T12:34:19.201Z,94.8
2022-11-11T12:36:20.595Z,94.8
2022-11-11T12:38:25.610Z,95
2022-11-11T12:42:28.092Z,94.9
2022-11-11T12:44:29.496Z,94.9
2022-11-11T12:46:30.879Z,94.9
2022-11-11T12:48:32.289Z,94.5
2022-11-11T12:50:33.687Z,94.5
2022-11-11T12:52:38.359Z,94.3
2022-11-11T12:57:43.504Z,94.4
2022-11-11T12:59:44.903Z,94.3
2022-11-11T13:01:46.295Z,94.4
2022-11-11T13:03:47.693Z,94.2
2022-11-11T13:05:52.445Z,94
2022-11-11T13:07:53.802Z,93.8
2022-11-11T13:13:57.991Z,94.1
2022-11-11T13:15:59.411Z,94.1
2022-11-11T13:24:08.349Z,94.1
2022-11-11T13:26:09.702Z,94
2022-11-11T13:34:18.615Z,92.9
2022-11-11T13:36:19.999Z,92.7
2022-11-11T13:38:21.419Z,92.5
2022-11-11T13:40:22.831Z,92.2
2022-11-11T13:42:24.254Z,92.1
2022-11-11T13:44:25.635Z,92.3
2022-11-11T13:53:36.875Z,92.3
2022-11-11T13:55:38.280Z,92.1
2022-11-11T13:57:39.704Z,91.9
2022-11-11T13:59:41.104Z,91.8
2022-11-11T14:01:45.808Z,91.6
2022-11-11T14:03:47.190Z,91.7
2022-11-11T14:05:48.584Z,91.8
2022-11-11T14:07:49.991Z,92
2022-11-11T14:09:51.381Z,92.3
2022-11-11T14:11:52.765Z,92.5
2022-11-11T14:13:54.185Z,92.7
2022-11-11T14:15:58.891Z,92.8
2022-11-11T14:18:00.280Z,93
2022-11-11T14:20:01.678Z,92.7
2022-11-11T14:22:03.082Z,92.6
2022-11-11T14:24:04.476Z,92.5
2022-11-11T14:26:05.893Z,92.3
2022-11-11T14:28:07.284Z,92
2022-11-11T14:30:12.013Z,91.2
2022-11-11T14:34:14.839Z,90.1
2022-11-11T14:38:17.622Z,90.4
2022-11-11T14:40:19.037Z,90.7
2022-11-11T14:42:20.443Z,91.6
2022-11-11T14:44:25.147Z,92.4
2022-11-11T14:46:26.563Z,92.8
2022-11-11T14:48:28.010Z,93.1
2022-11-11T14:49:30.319Z,93.5
2022-11-11T14:51:31.721Z,93.7
2022-11-11T14:53:33.128Z,94
2022-11-11T14:55:34.527Z,94.1
2022-11-11T14:57:39.207Z,94.6
2022-11-11T14:59:40.599Z,94.9
2022-11-11T15:01:42.014Z,95.2
2022-11-11T15:03:43.439Z,95.4
2022-11-11T15:05:44.836Z,95.7
2022-11-11T15:07:46.234Z,95.9
2022-11-11T15:09:47.643Z,96.2
2022-11-11T15:11:52.309Z,96.6
2022-11-11T15:13:53.713Z,96.9
2022-11-11T15:15:55.122Z,97.1
2022-11-11T15:17:56.521Z,97.5
2022-11-11T15:19:57.929Z,97.7
2022-11-11T15:21:59.350Z,98.1
2022-11-11T15:24:00.747Z,98.3
2022-11-11T15:26:05.433Z,98.9
2022-11-11T15:28:06.870Z,99.1
2022-11-11T15:30:08.246Z,99.3
2022-11-11T15:32:09.661Z,99.5
2022-11-11T15:34:11.063Z,99.6
2022-11-11T15:36:12.458Z,99.7
2022-11-11T15:38:13.861Z,99.8
2022-11-11T15:40:18.619Z,99.9
2022-11-11T15:42:19.998Z,99.9
2022-11-11T15:44:21.399Z,99.9
2022-11-11T15:46:48.196Z,99.9
2022-11-11T15:48:49.592Z,99.9
2022-11-11T15:50:50.990Z,99.9
2022-11-11T15:56:58.493Z,99.9
2022-11-11T15:58:59.875Z,99.9
2022-11-11T16:01:01.374Z,99.9
2022-11-11T16:03:02.710Z,99.9
2022-11-11T16:05:04.111Z,99.9
2022-11-11T16:07:08.826Z,99.9
2022-11-11T16:09:10.182Z,99.9
2022-11-11T16:11:11.565Z,99.9
2022-11-11T16:15:14.499Z,99.9
2022-11-11T16:17:15.759Z,99.9
2022-11-11T16:21:21.846Z,99.9
2022-11-11T16:25:24.624Z,99.9
2022-11-11T16:27:26.027Z,99.9
2022-11-11T16:29:27.424Z,99.9
2022-11-11T16:31:28.802Z,99.9
2022-11-11T16:33:30.255Z,99.9
2022-11-11T16:35:34.924Z,99.9
2022-11-11T16:37:36.367Z,99.9
2022-11-11T16:39:37.771Z,99.9
2022-11-11T16:40:40.150Z,99.9
2022-11-11T16:42:41.528Z,99.9
2022-11-11T16:44:42.887Z,99.9
2022-11-11T16:48:48.991Z,99.9
2022-11-11T16:52:51.766Z,99.9
2022-11-11T16:54:53.170Z,99.9
2022-11-11T16:56:54.549Z,99.9
2022-11-11T16:58:55.918Z,99.9
2022-11-11T17:00:57.304Z,99.9
2022-11-11T17:03:02.015Z,99.9
2022-11-11T17:05:03.434Z,99.9
2022-11-11T17:07:04.866Z,99.9
2022-11-11T17:09:06.211Z,99.9
2022-11-11T17:11:07.576Z,99.9
2022-11-11T17:13:10.552Z,99.9
2022-11-11T17:15:11.906Z,99.9
2022-11-11T17:17:16.616Z,99.9
2022-11-11T17:19:18.027Z,99.9
2022-11-11T17:21:19.389Z,99.9
2022-11-11T17:23:20.773Z,99.9
2022-11-11T17:25:22.182Z,99.9
2022-11-11T17:27:23.552Z,99.9
2022-11-11T17:29:24.980Z,99.9
2022-11-11T17:31:29.652Z,99.9
2022-11-11T17:33:31.086Z,99.9
2022-11-11T17:35:32.506Z,99.9
2022-11-11T17:40:37.690Z,99.9
2022-11-11T17:42:39.101Z,99.9
2022-11-11T17:44:43.775Z,99.9
2022-11-11T17:46:45.149Z,99.9
2022-11-11T17:48:46.564Z,99.9
2022-11-11T17:50:47.962Z,99.9
2022-11-11T17:52:49.359Z,99.9
2022-11-11T17:54:50.769Z,99.9
2022-11-11T17:56:52.116Z,99.9
2022-11-11T17:58:56.798Z,99.9
2022-11-11T18:00:58.203Z,99.9
2022-11-11T18:02:59.578Z,99.9
2022-11-11T18:05:00.944Z,99.9
2022-11-11T18:07:02.393Z,99.9
2022-11-11T18:09:03.796Z,99.9
2022-11-11T18:11:05.177Z,99.9
2022-11-11T18:13:09.855Z,99.9
2022-11-11T18:25:18.238Z,99.9
2022-11-11T18:27:22.791Z,99.9
2022-11-11T18:29:24.160Z,99.9
2022-11-11T18:31:25.587Z,99.9
2022-11-11T18:32:27.887Z,99.9
2022-11-11T18:34:29.236Z,99.9
2022-11-11T18:40:36.655Z,99.9
2022-11-11T18:42:38.027Z,99.9
2022-11-11T18:44:39.414Z,99.9
2022-11-11T18:52:44.921Z,99.9
2022-11-11T18:54:49.573Z,99.9
2022-11-11T18:56:50.995Z,99.9
2022-11-11T18:58:52.370Z,99.9
2022-11-11T19:00:53.748Z,99.9
2022-11-11T19:04:56.518Z,99.9
2022-11-11T19:06:58.030Z,99.9
2022-11-11T19:09:02.548Z,99.9
2022-11-11T19:11:03.960Z,99.9
2022-11-11T19:13:05.341Z,99.9
2022-11-11T19:15:06.735Z,99.9
2022-11-11T19:17:08.169Z,99.9
2022-11-11T19:19:09.552Z,99.9
2022-11-11T19:21:10.906Z,99.9
2022-11-11T19:23:15.582Z,99.9
2022-11-11T19:25:16.935Z,99.9
2022-11-11T19:27:18.322Z,99.9
2022-11-11T19:29:35.244Z,99.9
2022-11-11T19:31:36.623Z,99.9
2022-11-11T19:33:38.015Z,99.9
2022-11-11T19:43:48.170Z,99.9
2022-11-11T19:53:58.371Z,99.9
2022-11-11T19:58:01.104Z,99.9
2022-11-11T20:00:02.504Z,99.9
2022-11-11T20:02:03.941Z,99.9
2022-11-11T20:04:08.514Z,99.9
2022-11-11T20:06:09.879Z,99.9
2022-11-11T20:08:11.268Z,99.9
2022-11-11T20:10:12.604Z,99.9
2022-11-11T20:12:13.982Z,99.9
2022-11-11T20:14:15.350Z,99.9
2022-11-11T20:18:21.374Z,99.9
2022-11-11T20:20:22.768Z,99.9
2022-11-11T20:23:26.882Z,99.9
2022-11-11T20:25:27.836Z,99.9
2022-11-11T20:27:29.229Z,99.9
2022-11-11T20:29:30.571Z,99.9
2022-11-11T20:35:38.696Z,99.9
2022-11-11T20:37:39.290Z,99.9
2022-11-11T20:39:40.706Z,99.9
2022-11-11T20:41:42.138Z,99.9
2022-11-11T20:43:43.494Z,99.9
2022-11-11T20:45:48.144Z,99.9
2022-11-11T20:47:49.513Z,99.9
2022-11-11T20:49:50.882Z,99.9
2022-11-11T20:51:52.227Z,99.9
2022-11-11T20:53:53.581Z,99.9
2022-11-11T20:55:54.932Z,99.9
2022-11-11T20:57:56.290Z,99.9
2022-11-11T21:00:00.950Z,99.9
2022-11-11T21:02:02.354Z,99.9
2022-11-11T21:04:03.687Z,99.9
2022-11-11T21:06:05.090Z,99.9
2022-11-11T21:08:06.441Z,99.9
2022-11-11T21:10:07.778Z,99.9
2022-11-11T21:12:09.119Z,99.9
2022-11-11T21:14:13.825Z,99.9
2022-11-11T21:16:17.445Z,99.9
2022-11-11T21:19:18.826Z,99.9
2022-11-11T21:21:20.136Z,99.9
2022-11-11T21:27:32.834Z,99.9
2022-11-11T21:29:28.845Z,99.9
2022-11-11T21:31:30.195Z,99.9
2022-11-11T21:35:32.988Z,99.9
2022-11-11T21:37:34.331Z,99.9
2022-11-11T21:39:35.721Z,99.9
2022-11-11T21:41:40.426Z,99.9
2022-11-11T21:43:41.806Z,99.9
2022-11-11T21:45:43.161Z,99.9
2022-11-11T21:47:44.525Z,99.9
2022-11-11T21:49:45.875Z,99.9
2022-11-11T21:51:47.233Z,99.9
2022-11-11T21:53:48.668Z,99.9
2022-11-11T21:55:53.313Z,99.9
2022-11-11T21:57:54.649Z,99.9
2022-11-11T21:59:56.034Z,99.9
2022-11-11T22:01:57.514Z,99.9
2022-11-11T22:03:58.846Z,99.9
2022-11-11T22:06:00.176Z,99.9
2022-11-11T22:08:01.509Z,99.9
2022-11-11T22:10:06.204Z,99.9
2022-11-11T22:12:07.622Z,99.9
2022-11-11T22:14:08.961Z,99.9
2022-11-11T22:17:12.637Z,99.9
2022-11-11T22:19:14.020Z,99.9
2022-11-11T22:23:20.210Z,99.9
2022-11-11T22:27:22.889Z,99.9
2022-11-11T22:29:24.234Z,99.9
2022-11-11T22:31:25.635Z,99.9
2022-11-11T22:33:27.074Z,99.9
2022-11-11T22:35:28.479Z,99.9
2022-11-11T22:37:33.140Z,99.9
2022-11-11T22:39:34.480Z,99.9
2022-11-11T22:41:35.884Z,99.9
2022-11-11T22:43:58.594Z,99.9
2022-11-11T22:45:38.730Z,99.9
2022-11-11T22:47:40.143Z,99.9
2022-11-11T22:49:41.440Z,99.9
2022-11-11T22:51:46.101Z,99.9
2022-11-11T22:53:47.445Z,99.9
2022-11-11T22:55:48.775Z,99.9
2022-11-11T22:57:50.117Z,99.9
2022-11-11T22:59:51.467Z,99.9
2022-11-11T23:01:52.870Z,99.9
2022-11-11T23:03:55.821Z,99.9
2022-11-11T23:06:00.726Z,99.9
2022-11-11T23:08:01.843Z,99.9
2022-11-11T23:10:03.161Z,99.9
2022-11-11T23:12:26.500Z,99.9
2022-11-11T23:14:27.928Z,99.9
2022-11-11T23:16:29.382Z,99.9
2022-11-11T23:20:35.616Z,99.9
2022-11-11T23:22:37.033Z,99.9
2022-11-11T23:24:38.335Z,99.9
2022-11-11T23:26:39.733Z,99.9
2022-11-11T23:28:41.080Z,99.9
2022-11-11T23:30:42.517Z,99.9
2022-11-11T23:36:50.160Z,99.9
2022-11-11T23:38:51.544Z,99.9
2022-11-11T23:47:00.406Z,99.9
2022-11-11T23:49:01.820Z,99.9
2022-11-11T23:59:08.629Z,99.9
